< Typhoon 198719 1987 Season Typhoon 198721 >
Typhoon 198720 (LYNN)
General InformationTrack Information on Google MapsDetailed Wind InformationList of All Images || Disaster Info.ResourceGoogle EarthGE AnimationAtom FeedGeoJSON
Detalied Best Track (Time Zone = UTC)
Year Month Day Hour Lat. Long. Pressure (hPa) Wind (kt) Class Image Chart
1987 10 15 18 13.5 158.0 1006 0 2 Image Chart
1987 10 16 00 13.5 156.8 1004 0 2 Image Chart
1987 10 16 06 13.5 155.6 1000 35 3 Image Chart
1987 10 16 12 13.5 154.4 998 35 3 Image Chart
1987 10 16 18 13.5 153.2 996 40 3 Image Chart
1987 10 17 00 13.5 152.0 994 45 3 Image Chart
1987 10 17 06 13.5 150.8 992 45 3 Image Chart
1987 10 17 12 13.6 149.7 990 45 3 Image Chart
1987 10 17 18 13.7 148.6 985 45 3 Image Chart
1987 10 18 00 13.8 147.5 980 60 4 Image Chart
1987 10 18 06 14.2 146.6 975 65 5 Image Chart
1987 10 18 12 14.7 146.1 970 65 5 Image Chart
1987 10 18 18 15.1 145.3 970 65 5 Image Chart
1987 10 19 00 15.7 144.6 965 70 5 Image Chart
1987 10 19 06 16.2 143.5 960 75 5 Image Chart
1987 10 19 12 16.5 142.7 950 80 5 Image Chart
1987 10 19 18 16.9 142.1 940 90 5 Image Chart
1987 10 20 00 17.4 141.2 930 100 5 Image Chart
1987 10 20 06 17.7 140.0 920 100 5 Image Chart
1987 10 20 12 17.9 139.0 920 100 5 Image Chart
1987 10 20 18 18.0 138.0 920 105 5 Image Chart
1987 10 21 00 18.0 137.1 920 100 5 Image Chart
1987 10 21 06 18.2 135.8 925 95 5 Image Chart
1987 10 21 12 18.4 134.0 925 95 5 Image Chart
1987 10 21 18 18.3 132.3 930 90 5 Image Chart
1987 10 22 00 18.2 130.7 935 90 5 Image Chart
1987 10 22 06 18.1 129.3 935 90 5 Image Chart
1987 10 22 12 18.1 127.9 935 90 5 Image Chart
1987 10 22 18 18.1 126.4 935 90 5 Image Chart
1987 10 23 00 18.3 124.9 940 85 5 Image Chart
1987 10 23 06 18.7 123.7 940 85 5 Image Chart
1987 10 23 12 18.8 122.3 940 85 5 Image Chart
1987 10 23 18 19.0 121.5 945 85 5 Image Chart
1987 10 24 00 19.3 121.0 950 80 5 Image Chart
1987 10 24 06 19.6 120.5 950 75 5 Image Chart
1987 10 24 12 19.9 120.0 955 75 5 Image Chart
1987 10 24 18 20.1 119.7 960 75 5 Image Chart
1987 10 25 00 20.3 119.4 965 70 5 Image Chart
1987 10 25 06 20.6 119.2 970 65 5 Image Chart
1987 10 25 12 21.0 119.0 975 65 5 Image Chart
1987 10 25 18 21.2 118.9 980 60 4 Image Chart
1987 10 26 00 21.4 118.8 985 55 4 Image Chart
1987 10 26 06 21.4 118.8 990 45 3 Image Chart
1987 10 26 12 21.4 118.8 996 45 3 Image Chart
1987 10 26 18 21.0 118.3 998 40 3 Image Chart
1987 10 27 00 20.9 117.7 1000 0 2 Image Chart
1987 10 27 06 21.1 116.7 1002 0 2 Image Chart
1987 10 27 12 21.2 115.8 1006 0 2 Image Chart
1987 10 27 18 21.3 114.8 1008 0 2 Image Chart
1987 10 28 00 21.6 114.1 1010 0 2 Image Chart
1987 10 28 06 22.5 113.1 1012 0 2 Image Chart
Japan Meteorological Agency Best Track Data | Correction Date : 1992-10-21
< Typhoon 198719 1987 Season Typhoon 198721 >

Help